sensor_id;sensor_type;location;lat;lon;timestamp;P1;durP1;ratioP1;P2;durP2;ratioP2
6791;SDS011;3433;48.730;9.108;2022-10-29T00:00:15;13.13;;;4.30;;
6791;SDS011;3433;48.730;9.108;2022-10-29T00:02:42;5.93;;;4.00;;
6791;SDS011;3433;48.730;9.108;2022-10-29T00:05:09;9.80;;;4.43;;
6791;SDS011;3433;48.730;9.108;2022-10-29T00:07:36;10.40;;;4.67;;
6791;SDS011;3433;48.730;9.108;2022-10-29T00:10:03;7.10;;;5.33;;
6791;SDS011;3433;48.730;9.108;2022-10-29T00:12:31;7.80;;;4.47;;
6791;SDS011;3433;48.730;9.108;2022-10-29T00:14:58;8.80;;;4.20;;
6791;SDS011;3433;48.730;9.108;2022-10-29T00:17:26;11.13;;;5.60;;
6791;SDS011;3433;48.730;9.108;2022-10-29T00:19:53;7.90;;;3.97;;
6791;SDS011;3433;48.730;9.108;2022-10-29T00:22:20;6.07;;;4.00;;
6791;SDS011;3433;48.730;9.108;2022-10-29T00:24:46;8.57;;;4.30;;
6791;SDS011;3433;48.730;9.108;2022-10-29T00:27:13;4.27;;;3.60;;
6791;SDS011;3433;48.730;9.108;2022-10-29T00:29:40;14.23;;;4.93;;
6791;SDS011;3433;48.730;9.108;2022-10-29T00:32:07;8.37;;;4.80;;
6791;SDS011;3433;48.730;9.108;2022-10-29T00:34:36;7.90;;;4.10;;
6791;SDS011;3433;48.730;9.108;2022-10-29T00:37:03;14.50;;;4.43;;
6791;SDS011;3433;48.730;9.108;2022-10-29T00:39:30;13.07;;;4.60;;
6791;SDS011;3433;48.730;9.108;2022-10-29T00:41:58;11.77;;;5.07;;
6791;SDS011;3433;48.730;9.108;2022-10-29T00:44:29;9.23;;;4.00;;
6791;SDS011;3433;48.730;9.108;2022-10-29T00:47:00;6.70;;;4.00;;
6791;SDS011;3433;48.730;9.108;2022-10-29T00:49:36;10.30;;;4.50;;
6791;SDS011;3433;48.730;9.108;2022-10-29T00:52:06;8.80;;;4.57;;
6791;SDS011;3433;48.730;9.108;2022-10-29T00:54:35;10.53;;;4.57;;
6791;SDS011;3433;48.730;9.108;2022-10-29T00:57:06;12.50;;;4.60;;
6791;SDS011;3433;48.730;9.108;2022-10-29T00:59:35;14.23;;;4.50;;
6791;SDS011;3433;48.730;9.108;2022-10-29T01:02:02;8.57;;;4.50;;
6791;SDS011;3433;48.730;9.108;2022-10-29T01:04:29;10.30;;;5.20;;
6791;SDS011;3433;48.730;9.108;2022-10-29T01:06:58;11.20;;;4.87;;
6791;SDS011;3433;48.730;9.108;2022-10-29T01:09:25;12.27;;;4.07;;
6791;SDS011;3433;48.730;9.108;2022-10-29T01:11:56;13.50;;;4.70;;
6791;SDS011;3433;48.730;9.108;2022-10-29T01:14:37;16.33;;;4.80;;
6791;SDS011;3433;48.730;9.108;2022-10-29T01:17:13;8.80;;;3.97;;
6791;SDS011;3433;48.730;9.108;2022-10-29T01:20:02;10.90;;;5.33;;
6791;SDS011;3433;48.730;9.108;2022-10-29T01:22:52;12.07;;;4.60;;
6791;SDS011;3433;48.730;9.108;2022-10-29T01:25:35;10.50;;;4.40;;
6791;SDS011;3433;48.730;9.108;2022-10-29T01:28:16;15.93;;;4.53;;
6791;SDS011;3433;48.730;9.108;2022-10-29T01:30:56;12.03;;;4.23;;
6791;SDS011;3433;48.730;9.108;2022-10-29T01:33:34;7.20;;;4.37;;
6791;SDS011;3433;48.730;9.108;2022-10-29T01:36:06;8.93;;;4.37;;
6791;SDS011;3433;48.730;9.108;2022-10-29T01:38:42;9.50;;;4.10;;
6791;SDS011;3433;48.730;9.108;2022-10-29T01:41:19;9.37;;;4.70;;
6791;SDS011;3433;48.730;9.108;2022-10-29T01:43:50;8.30;;;4.60;;
6791;SDS011;3433;48.730;9.108;2022-10-29T01:46:27;8.80;;;4.37;;
6791;SDS011;3433;48.730;9.108;2022-10-29T01:49:01;9.33;;;4.37;;
6791;SDS011;3433;48.730;9.108;2022-10-29T01:51:33;7.97;;;4.30;;
6791;SDS011;3433;48.730;9.108;2022-10-29T01:54:04;10.20;;;4.10;;
6791;SDS011;3433;48.730;9.108;2022-10-29T01:56:33;9.90;;;4.37;;
6791;SDS011;3433;48.730;9.108;2022-10-29T01:59:00;13.03;;;4.63;;
6791;SDS011;3433;48.730;9.108;2022-10-29T02:01:40;8.00;;;4.10;;
6791;SDS011;3433;48.730;9.108;2022-10-29T02:07:17;11.60;;;4.70;;
6791;SDS011;3433;48.730;9.108;2022-10-29T02:09:55;14.93;;;4.60;;
6791;SDS011;3433;48.730;9.108;2022-10-29T02:12:28;13.93;;;4.83;;
6791;SDS011;3433;48.730;9.108;2022-10-29T02:15:01;7.87;;;4.20;;
6791;SDS011;3433;48.730;9.108;2022-10-29T02:17:34;6.40;;;4.03;;
6791;SDS011;3433;48.730;9.108;2022-10-29T02:20:02;8.87;;;5.20;;
6791;SDS011;3433;48.730;9.108;2022-10-29T02:22:30;11.13;;;4.70;;
6791;SDS011;3433;48.730;9.108;2022-10-29T02:24:57;10.63;;;5.10;;
6791;SDS011;3433;48.730;9.108;2022-10-29T02:27:24;8.80;;;4.70;;
6791;SDS011;3433;48.730;9.108;2022-10-29T02:29:50;11.23;;;4.93;;
6791;SDS011;3433;48.730;9.108;2022-10-29T02:32:17;10.30;;;4.27;;
6791;SDS011;3433;48.730;9.108;2022-10-29T02:34:46;8.20;;;4.53;;
6791;SDS011;3433;48.730;9.108;2022-10-29T02:37:12;6.60;;;3.90;;
6791;SDS011;3433;48.730;9.108;2022-10-29T02:39:39;8.70;;;4.40;;
6791;SDS011;3433;48.730;9.108;2022-10-29T02:42:06;9.90;;;4.20;;
6791;SDS011;3433;48.730;9.108;2022-10-29T02:44:33;12.90;;;4.77;;
6791;SDS011;3433;48.730;9.108;2022-10-29T02:47:03;10.30;;;4.63;;
6791;SDS011;3433;48.730;9.108;2022-10-29T02:49:30;11.50;;;4.80;;
6791;SDS011;3433;48.730;9.108;2022-10-29T02:51:58;11.67;;;5.50;;
6791;SDS011;3433;48.730;9.108;2022-10-29T02:54:25;12.73;;;5.23;;
6791;SDS011;3433;48.730;9.108;2022-10-29T02:56:52;8.33;;;4.40;;
6791;SDS011;3433;48.730;9.108;2022-10-29T02:59:19;9.53;;;4.47;;
6791;SDS011;3433;48.730;9.108;2022-10-29T03:01:46;10.47;;;4.80;;
6791;SDS011;3433;48.730;9.108;2022-10-29T03:04:13;10.50;;;4.67;;
6791;SDS011;3433;48.730;9.108;2022-10-29T03:06:40;8.93;;;4.90;;
6791;SDS011;3433;48.730;9.108;2022-10-29T03:09:08;12.70;;;5.60;;
6791;SDS011;3433;48.730;9.108;2022-10-29T03:11:35;17.23;;;6.83;;
6791;SDS011;3433;48.730;9.108;2022-10-29T03:14:02;11.43;;;4.83;;
6791;SDS011;3433;48.730;9.108;2022-10-29T03:16:29;9.87;;;5.10;;
6791;SDS011;3433;48.730;9.108;2022-10-29T03:18:56;12.77;;;5.07;;
6791;SDS011;3433;48.730;9.108;2022-10-29T03:21:23;11.97;;;5.20;;
6791;SDS011;3433;48.730;9.108;2022-10-29T03:23:49;10.37;;;5.57;;
6791;SDS011;3433;48.730;9.108;2022-10-29T03:26:18;6.83;;;4.33;;
6791;SDS011;3433;48.730;9.108;2022-10-29T03:28:45;12.60;;;5.03;;
6791;SDS011;3433;48.730;9.108;2022-10-29T03:31:12;13.30;;;4.13;;
6791;SDS011;3433;48.730;9.108;2022-10-29T03:33:38;8.43;;;4.50;;
6791;SDS011;3433;48.730;9.108;2022-10-29T03:36:06;8.70;;;4.60;;
6791;SDS011;3433;48.730;9.108;2022-10-29T03:38:38;9.23;;;4.60;;
6791;SDS011;3433;48.730;9.108;2022-10-29T03:41:08;10.23;;;4.37;;
6791;SDS011;3433;48.730;9.108;2022-10-29T03:43:37;8.73;;;4.87;;
6791;SDS011;3433;48.730;9.108;2022-10-29T03:46:04;8.30;;;4.50;;
6791;SDS011;3433;48.730;9.108;2022-10-29T03:48:31;11.53;;;5.07;;
6791;SDS011;3433;48.730;9.108;2022-10-29T03:50:59;9.27;;;4.60;;
6791;SDS011;3433;48.730;9.108;2022-10-29T03:53:30;10.20;;;4.57;;
6791;SDS011;3433;48.730;9.108;2022-10-29T03:55:57;9.30;;;4.63;;
6791;SDS011;3433;48.730;9.108;2022-10-29T03:58:24;9.77;;;5.00;;
6791;SDS011;3433;48.730;9.108;2022-10-29T04:00:54;9.67;;;4.90;;
6791;SDS011;3433;48.730;9.108;2022-10-29T04:03:22;7.07;;;4.37;;
6791;SDS011;3433;48.730;9.108;2022-10-29T04:05:49;9.30;;;4.70;;
6791;SDS011;3433;48.730;9.108;2022-10-29T04:08:16;10.97;;;4.93;;
6791;SDS011;3433;48.730;9.108;2022-10-29T04:10:44;12.27;;;4.23;;
6791;SDS011;3433;48.730;9.108;2022-10-29T04:13:11;10.13;;;4.43;;
6791;SDS011;3433;48.730;9.108;2022-10-29T04:15:38;8.97;;;4.40;;
6791;SDS011;3433;48.730;9.108;2022-10-29T04:18:07;10.77;;;5.17;;
6791;SDS011;3433;48.730;9.108;2022-10-29T04:20:35;9.30;;;5.00;;
6791;SDS011;3433;48.730;9.108;2022-10-29T04:23:03;8.00;;;4.77;;
6791;SDS011;3433;48.730;9.108;2022-10-29T04:25:30;14.90;;;5.10;;
6791;SDS011;3433;48.730;9.108;2022-10-29T04:27:57;10.67;;;4.30;;
6791;SDS011;3433;48.730;9.108;2022-10-29T04:30:24;9.80;;;5.57;;
6791;SDS011;3433;48.730;9.108;2022-10-29T04:32:54;6.93;;;4.90;;
6791;SDS011;3433;48.730;9.108;2022-10-29T04:35:23;15.27;;;5.37;;
6791;SDS011;3433;48.730;9.108;2022-10-29T04:37:51;8.80;;;5.00;;
6791;SDS011;3433;48.730;9.108;2022-10-29T04:40:19;12.03;;;4.87;;
6791;SDS011;3433;48.730;9.108;2022-10-29T04:42:48;9.33;;;5.17;;
6791;SDS011;3433;48.730;9.108;2022-10-29T04:45:15;15.00;;;4.70;;
6791;SDS011;3433;48.730;9.108;2022-10-29T04:47:42;6.53;;;5.03;;
6791;SDS011;3433;48.730;9.108;2022-10-29T04:50:09;7.97;;;4.70;;
6791;SDS011;3433;48.730;9.108;2022-10-29T04:52:38;9.20;;;4.80;;
6791;SDS011;3433;48.730;9.108;2022-10-29T04:55:05;11.03;;;4.60;;
6791;SDS011;3433;48.730;9.108;2022-10-29T04:57:32;13.40;;;4.70;;
6791;SDS011;3433;48.730;9.108;2022-10-29T04:59:59;8.40;;;4.67;;
6791;SDS011;3433;48.730;9.108;2022-10-29T05:02:26;12.13;;;5.50;;
6791;SDS011;3433;48.730;9.108;2022-10-29T05:04:53;9.00;;;4.43;;
6791;SDS011;3433;48.730;9.108;2022-10-29T05:07:19;13.90;;;5.63;;
6791;SDS011;3433;48.730;9.108;2022-10-29T05:09:48;11.50;;;5.33;;
6791;SDS011;3433;48.730;9.108;2022-10-29T05:12:15;6.83;;;4.70;;
6791;SDS011;3433;48.730;9.108;2022-10-29T05:14:41;9.70;;;5.20;;
6791;SDS011;3433;48.730;9.108;2022-10-29T05:17:08;9.23;;;5.07;;
6791;SDS011;3433;48.730;9.108;2022-10-29T05:19:35;13.60;;;5.30;;
6791;SDS011;3433;48.730;9.108;2022-10-29T05:22:02;10.73;;;5.20;;
6791;SDS011;3433;48.730;9.108;2022-10-29T05:24:29;10.73;;;6.00;;
6791;SDS011;3433;48.730;9.108;2022-10-29T05:26:57;7.23;;;4.63;;
6791;SDS011;3433;48.730;9.108;2022-10-29T05:29:24;11.03;;;4.50;;
6791;SDS011;3433;48.730;9.108;2022-10-29T05:31:51;13.30;;;5.00;;
6791;SDS011;3433;48.730;9.108;2022-10-29T05:34:19;12.53;;;5.60;;
6791;SDS011;3433;48.730;9.108;2022-10-29T05:36:46;15.13;;;5.83;;
6791;SDS011;3433;48.730;9.108;2022-10-29T05:39:13;14.33;;;5.10;;
6791;SDS011;3433;48.730;9.108;2022-10-29T05:41:40;12.80;;;4.80;;
6791;SDS011;3433;48.730;9.108;2022-10-29T05:44:08;14.57;;;5.10;;
6791;SDS011;3433;48.730;9.108;2022-10-29T05:46:35;11.27;;;5.13;;
6791;SDS011;3433;48.730;9.108;2022-10-29T05:49:02;10.30;;;4.60;;
6791;SDS011;3433;48.730;9.108;2022-10-29T05:51:29;10.10;;;5.50;;
6791;SDS011;3433;48.730;9.108;2022-10-29T05:53:56;11.60;;;5.20;;
6791;SDS011;3433;48.730;9.108;2022-10-29T05:56:23;10.37;;;6.23;;
6791;SDS011;3433;48.730;9.108;2022-10-29T05:58:51;10.07;;;5.03;;
6791;SDS011;3433;48.730;9.108;2022-10-29T06:01:19;10.30;;;5.90;;
6791;SDS011;3433;48.730;9.108;2022-10-29T06:03:46;10.83;;;5.47;;
6791;SDS011;3433;48.730;9.108;2022-10-29T06:06:13;8.77;;;4.83;;
6791;SDS011;3433;48.730;9.108;2022-10-29T06:08:40;11.10;;;5.90;;
6791;SDS011;3433;48.730;9.108;2022-10-29T06:11:07;12.73;;;5.50;;
6791;SDS011;3433;48.730;9.108;2022-10-29T06:13:34;11.47;;;5.57;;
6791;SDS011;3433;48.730;9.108;2022-10-29T06:16:01;10.17;;;5.10;;
6791;SDS011;3433;48.730;9.108;2022-10-29T06:18:30;11.43;;;5.13;;
6791;SDS011;3433;48.730;9.108;2022-10-29T06:20:57;8.27;;;6.00;;
6791;SDS011;3433;48.730;9.108;2022-10-29T06:23:24;8.57;;;5.57;;
6791;SDS011;3433;48.730;9.108;2022-10-29T06:25:51;11.37;;;5.63;;
6791;SDS011;3433;48.730;9.108;2022-10-29T06:28:18;10.70;;;5.07;;
6791;SDS011;3433;48.730;9.108;2022-10-29T06:30:46;11.10;;;5.47;;
6791;SDS011;3433;48.730;9.108;2022-10-29T06:33:14;7.77;;;5.40;;
6791;SDS011;3433;48.730;9.108;2022-10-29T06:35:43;11.30;;;4.97;;
6791;SDS011;3433;48.730;9.108;2022-10-29T06:38:10;8.57;;;6.30;;
6791;SDS011;3433;48.730;9.108;2022-10-29T06:40:37;10.67;;;5.67;;
6791;SDS011;3433;48.730;9.108;2022-10-29T06:43:05;11.23;;;5.57;;
6791;SDS011;3433;48.730;9.108;2022-10-29T06:45:34;13.40;;;5.70;;
6791;SDS011;3433;48.730;9.108;2022-10-29T06:48:02;9.83;;;5.27;;
6791;SDS011;3433;48.730;9.108;2022-10-29T06:50:30;8.17;;;5.67;;
6791;SDS011;3433;48.730;9.108;2022-10-29T06:52:59;12.10;;;6.40;;
6791;SDS011;3433;48.730;9.108;2022-10-29T06:55:27;9.80;;;5.23;;
6791;SDS011;3433;48.730;9.108;2022-10-29T06:57:55;6.53;;;5.70;;
6791;SDS011;3433;48.730;9.108;2022-10-29T07:00:23;9.10;;;5.67;;
6791;SDS011;3433;48.730;9.108;2022-10-29T07:02:50;9.10;;;5.67;;
6791;SDS011;3433;48.730;9.108;2022-10-29T07:05:17;12.17;;;5.93;;
6791;SDS011;3433;48.730;9.108;2022-10-29T07:07:44;9.87;;;5.93;;
6791;SDS011;3433;48.730;9.108;2022-10-29T07:10:13;11.03;;;6.37;;
6791;SDS011;3433;48.730;9.108;2022-10-29T07:12:40;9.87;;;6.43;;
6791;SDS011;3433;48.730;9.108;2022-10-29T07:15:08;14.20;;;4.83;;
6791;SDS011;3433;48.730;9.108;2022-10-29T07:17:36;10.73;;;5.77;;
6791;SDS011;3433;48.730;9.108;2022-10-29T07:20:04;11.27;;;5.10;;
6791;SDS011;3433;48.730;9.108;2022-10-29T07:22:32;14.00;;;5.63;;
6791;SDS011;3433;48.730;9.108;2022-10-29T07:25:00;10.10;;;5.67;;
6791;SDS011;3433;48.730;9.108;2022-10-29T07:27:28;10.80;;;5.97;;
6791;SDS011;3433;48.730;9.108;2022-10-29T07:29:55;17.20;;;5.90;;
6791;SDS011;3433;48.730;9.108;2022-10-29T07:32:22;12.90;;;6.63;;
6791;SDS011;3433;48.730;9.108;2022-10-29T07:34:49;13.60;;;5.77;;
6791;SDS011;3433;48.730;9.108;2022-10-29T07:37:16;11.20;;;5.33;;
6791;SDS011;3433;48.730;9.108;2022-10-29T07:39:43;9.63;;;6.10;;
6791;SDS011;3433;48.730;9.108;2022-10-29T07:42:10;12.93;;;4.53;;
6791;SDS011;3433;48.730;9.108;2022-10-29T07:44:38;9.13;;;4.93;;
6791;SDS011;3433;48.730;9.108;2022-10-29T07:47:05;12.13;;;5.00;;
6791;SDS011;3433;48.730;9.108;2022-10-29T07:49:32;11.13;;;4.40;;
6791;SDS011;3433;48.730;9.108;2022-10-29T07:51:59;10.73;;;4.83;;
6791;SDS011;3433;48.730;9.108;2022-10-29T07:54:26;11.20;;;4.70;;
6791;SDS011;3433;48.730;9.108;2022-10-29T07:56:53;13.03;;;4.93;;
6791;SDS011;3433;48.730;9.108;2022-10-29T07:59:20;14.50;;;5.50;;
6791;SDS011;3433;48.730;9.108;2022-10-29T08:01:48;14.87;;;6.43;;
6791;SDS011;3433;48.730;9.108;2022-10-29T08:04:15;13.30;;;5.33;;
6791;SDS011;3433;48.730;9.108;2022-10-29T08:06:42;11.33;;;4.90;;
6791;SDS011;3433;48.730;9.108;2022-10-29T08:09:09;13.30;;;5.47;;
6791;SDS011;3433;48.730;9.108;2022-10-29T08:11:36;9.33;;;5.40;;
6791;SDS011;3433;48.730;9.108;2022-10-29T08:14:04;15.97;;;5.93;;
6791;SDS011;3433;48.730;9.108;2022-10-29T08:16:31;13.60;;;5.53;;
6791;SDS011;3433;48.730;9.108;2022-10-29T08:19:02;12.17;;;5.30;;
6791;SDS011;3433;48.730;9.108;2022-10-29T08:21:29;14.53;;;4.63;;
6791;SDS011;3433;48.730;9.108;2022-10-29T08:23:56;14.10;;;6.37;;
6791;SDS011;3433;48.730;9.108;2022-10-29T08:26:23;12.90;;;4.57;;
6791;SDS011;3433;48.730;9.108;2022-10-29T08:28:50;14.37;;;4.50;;
6791;SDS011;3433;48.730;9.108;2022-10-29T08:31:17;17.00;;;5.73;;
6791;SDS011;3433;48.730;9.108;2022-10-29T08:33:46;9.87;;;5.20;;
6791;SDS011;3433;48.730;9.108;2022-10-29T08:36:14;12.60;;;4.87;;
6791;SDS011;3433;48.730;9.108;2022-10-29T08:38:41;11.47;;;5.27;;
6791;SDS011;3433;48.730;9.108;2022-10-29T08:41:19;14.53;;;5.17;;
6791;SDS011;3433;48.730;9.108;2022-10-29T08:44:05;14.33;;;5.80;;
6791;SDS011;3433;48.730;9.108;2022-10-29T08:46:42;13.10;;;6.63;;
6791;SDS011;3433;48.730;9.108;2022-10-29T08:49:13;12.10;;;5.70;;
6791;SDS011;3433;48.730;9.108;2022-10-29T08:51:46;11.13;;;5.67;;
6791;SDS011;3433;48.730;9.108;2022-10-29T08:54:18;11.10;;;5.70;;
6791;SDS011;3433;48.730;9.108;2022-10-29T08:56:47;16.60;;;5.47;;
6791;SDS011;3433;48.730;9.108;2022-10-29T08:59:16;8.00;;;4.73;;
6791;SDS011;3433;48.730;9.108;2022-10-29T09:01:45;17.37;;;5.70;;
6791;SDS011;3433;48.730;9.108;2022-10-29T09:04:17;14.80;;;5.53;;
6791;SDS011;3433;48.730;9.108;2022-10-29T09:06:52;12.90;;;4.47;;
6791;SDS011;3433;48.730;9.108;2022-10-29T09:09:41;11.23;;;4.63;;
6791;SDS011;3433;48.730;9.108;2022-10-29T09:12:19;12.17;;;4.03;;
6791;SDS011;3433;48.730;9.108;2022-10-29T09:18:07;10.87;;;4.07;;
6791;SDS011;3433;48.730;9.108;2022-10-29T09:20:51;5.03;;;3.27;;
6791;SDS011;3433;48.730;9.108;2022-10-29T09:23:25;14.93;;;4.50;;
6791;SDS011;3433;48.730;9.108;2022-10-29T09:26:00;13.60;;;4.53;;
6791;SDS011;3433;48.730;9.108;2022-10-29T09:28:32;9.03;;;4.63;;
6791;SDS011;3433;48.730;9.108;2022-10-29T09:31:10;12.93;;;5.70;;
6791;SDS011;3433;48.730;9.108;2022-10-29T09:33:45;15.17;;;5.03;;
6791;SDS011;3433;48.730;9.108;2022-10-29T09:36:16;11.50;;;5.47;;
6791;SDS011;3433;48.730;9.108;2022-10-29T09:38:48;10.77;;;4.63;;
6791;SDS011;3433;48.730;9.108;2022-10-29T09:41:21;14.27;;;5.63;;
6791;SDS011;3433;48.730;9.108;2022-10-29T09:43:51;11.83;;;5.10;;
6791;SDS011;3433;48.730;9.108;2022-10-29T09:46:28;14.73;;;5.50;;
6791;SDS011;3433;48.730;9.108;2022-10-29T09:49:02;12.93;;;5.57;;
6791;SDS011;3433;48.730;9.108;2022-10-29T09:51:44;13.37;;;5.00;;
6791;SDS011;3433;48.730;9.108;2022-10-29T09:54:18;12.47;;;4.43;;
6791;SDS011;3433;48.730;9.108;2022-10-29T09:56:45;9.70;;;4.60;;
6791;SDS011;3433;48.730;9.108;2022-10-29T09:59:16;14.37;;;4.30;;
6791;SDS011;3433;48.730;9.108;2022-10-29T10:01:51;15.97;;;4.90;;
6791;SDS011;3433;48.730;9.108;2022-10-29T10:04:20;12.60;;;4.27;;
6791;SDS011;3433;48.730;9.108;2022-10-29T10:07:01;9.50;;;4.10;;
6791;SDS011;3433;48.730;9.108;2022-10-29T10:09:39;11.87;;;4.70;;
6791;SDS011;3433;48.730;9.108;2022-10-29T10:12:17;11.33;;;4.60;;
6791;SDS011;3433;48.730;9.108;2022-10-29T10:14:44;9.80;;;4.37;;
6791;SDS011;3433;48.730;9.108;2022-10-29T10:17:12;11.40;;;5.03;;
6791;SDS011;3433;48.730;9.108;2022-10-29T10:19:41;14.53;;;4.77;;
6791;SDS011;3433;48.730;9.108;2022-10-29T10:22:16;6.87;;;3.80;;
6791;SDS011;3433;48.730;9.108;2022-10-29T10:24:45;15.10;;;4.40;;
6791;SDS011;3433;48.730;9.108;2022-10-29T10:27:27;11.57;;;4.30;;
6791;SDS011;3433;48.730;9.108;2022-10-29T10:30:06;8.63;;;4.20;;
6791;SDS011;3433;48.730;9.108;2022-10-29T10:32:40;9.83;;;4.00;;
6791;SDS011;3433;48.730;9.108;2022-10-29T10:35:23;9.73;;;3.83;;
6791;SDS011;3433;48.730;9.108;2022-10-29T10:37:52;10.50;;;3.50;;
6791;SDS011;3433;48.730;9.108;2022-10-29T10:40:21;8.00;;;4.00;;
6791;SDS011;3433;48.730;9.108;2022-10-29T10:42:50;11.33;;;4.70;;
6791;SDS011;3433;48.730;9.108;2022-10-29T10:45:21;8.13;;;3.10;;
6791;SDS011;3433;48.730;9.108;2022-10-29T10:47:51;5.90;;;3.50;;
6791;SDS011;3433;48.730;9.108;2022-10-29T10:50:23;8.40;;;3.40;;
6791;SDS011;3433;48.730;9.108;2022-10-29T10:52:52;10.30;;;3.73;;
6791;SDS011;3433;48.730;9.108;2022-10-29T10:55:23;11.87;;;3.57;;
6791;SDS011;3433;48.730;9.108;2022-10-29T10:57:54;9.20;;;3.40;;
6791;SDS011;3433;48.730;9.108;2022-10-29T11:00:27;12.60;;;3.30;;
6791;SDS011;3433;48.730;9.108;2022-10-29T11:03:02;7.77;;;3.67;;
6791;SDS011;3433;48.730;9.108;2022-10-29T11:05:37;7.33;;;3.73;;
6791;SDS011;3433;48.730;9.108;2022-10-29T11:08:09;11.40;;;3.37;;
6791;SDS011;3433;48.730;9.108;2022-10-29T11:10:43;8.63;;;3.43;;
6791;SDS011;3433;48.730;9.108;2022-10-29T11:13:14;12.13;;;3.83;;
6791;SDS011;3433;48.730;9.108;2022-10-29T11:15:46;10.07;;;3.20;;
6791;SDS011;3433;48.730;9.108;2022-10-29T11:18:17;12.67;;;3.80;;
6791;SDS011;3433;48.730;9.108;2022-10-29T11:20:51;9.10;;;3.60;;
6791;SDS011;3433;48.730;9.108;2022-10-29T11:23:28;10.50;;;3.57;;
6791;SDS011;3433;48.730;9.108;2022-10-29T11:26:07;10.10;;;3.30;;
6791;SDS011;3433;48.730;9.108;2022-10-29T11:28:41;10.23;;;3.30;;
6791;SDS011;3433;48.730;9.108;2022-10-29T11:59:52;4.33;;;2.67;;
6791;SDS011;3433;48.730;9.108;2022-10-29T12:02:41;11.10;;;3.00;;
6791;SDS011;3433;48.730;9.108;2022-10-29T12:05:27;11.33;;;3.33;;
6791;SDS011;3433;48.730;9.108;2022-10-29T12:08:11;10.07;;;3.47;;
6791;SDS011;3433;48.730;9.108;2022-10-29T12:10:47;8.50;;;3.13;;
6791;SDS011;3433;48.730;9.108;2022-10-29T12:13:23;8.80;;;2.93;;
6791;SDS011;3433;48.730;9.108;2022-10-29T12:16:05;10.33;;;3.20;;
6791;SDS011;3433;48.730;9.108;2022-10-29T12:18:41;8.10;;;3.43;;
6791;SDS011;3433;48.730;9.108;2022-10-29T12:21:14;10.70;;;3.80;;
6791;SDS011;3433;48.730;9.108;2022-10-29T12:23:50;8.73;;;2.83;;
6791;SDS011;3433;48.730;9.108;2022-10-29T12:26:28;9.83;;;3.40;;
6791;SDS011;3433;48.730;9.108;2022-10-29T12:29:03;6.67;;;2.80;;
6791;SDS011;3433;48.730;9.108;2022-10-29T12:31:43;7.80;;;3.43;;
6791;SDS011;3433;48.730;9.108;2022-10-29T12:34:18;6.77;;;3.80;;
6791;SDS011;3433;48.730;9.108;2022-10-29T12:36:52;9.43;;;3.60;;
6791;SDS011;3433;48.730;9.108;2022-10-29T12:39:25;6.00;;;2.53;;
6791;SDS011;3433;48.730;9.108;2022-10-29T12:41:57;5.57;;;3.07;;
6791;SDS011;3433;48.730;9.108;2022-10-29T12:44:28;14.73;;;2.93;;
6791;SDS011;3433;48.730;9.108;2022-10-29T12:47:03;11.30;;;3.17;;
6791;SDS011;3433;48.730;9.108;2022-10-29T12:49:45;8.43;;;3.33;;
6791;SDS011;3433;48.730;9.108;2022-10-29T12:52:23;9.00;;;3.53;;
6791;SDS011;3433;48.730;9.108;2022-10-29T12:55:01;7.23;;;3.33;;
6791;SDS011;3433;48.730;9.108;2022-10-29T12:57:32;8.00;;;3.50;;
6791;SDS011;3433;48.730;9.108;2022-10-29T13:03:05;6.37;;;3.40;;
6791;SDS011;3433;48.730;9.108;2022-10-29T13:05:38;13.97;;;3.90;;
6791;SDS011;3433;48.730;9.108;2022-10-29T13:08:08;8.50;;;3.70;;
6791;SDS011;3433;48.730;9.108;2022-10-29T13:10:54;8.93;;;3.80;;
6791;SDS011;3433;48.730;9.108;2022-10-29T13:13:33;7.27;;;2.80;;
6791;SDS011;3433;48.730;9.108;2022-10-29T13:16:17;6.83;;;3.20;;
6791;SDS011;3433;48.730;9.108;2022-10-29T13:19:08;9.70;;;3.80;;
6791;SDS011;3433;48.730;9.108;2022-10-29T13:24:29;7.50;;;3.40;;
6791;SDS011;3433;48.730;9.108;2022-10-29T13:27:00;11.10;;;3.43;;
6791;SDS011;3433;48.730;9.108;2022-10-29T13:29:44;7.47;;;2.97;;
6791;SDS011;3433;48.730;9.108;2022-10-29T13:32:29;7.50;;;3.07;;
6791;SDS011;3433;48.730;9.108;2022-10-29T13:34:59;7.27;;;3.30;;
6791;SDS011;3433;48.730;9.108;2022-10-29T13:37:37;7.80;;;3.40;;
6791;SDS011;3433;48.730;9.108;2022-10-29T13:43:25;6.83;;;3.10;;
6791;SDS011;3433;48.730;9.108;2022-10-29T13:45:59;6.93;;;2.90;;
6791;SDS011;3433;48.730;9.108;2022-10-29T13:48:42;6.47;;;3.30;;
6791;SDS011;3433;48.730;9.108;2022-10-29T13:51:14;11.27;;;3.70;;
6791;SDS011;3433;48.730;9.108;2022-10-29T13:53:46;9.77;;;4.30;;
6791;SDS011;3433;48.730;9.108;2022-10-29T13:56:22;11.53;;;3.63;;
6791;SDS011;3433;48.730;9.108;2022-10-29T13:58:54;13.63;;;3.50;;
6791;SDS011;3433;48.730;9.108;2022-10-29T14:01:25;10.10;;;3.97;;
6791;SDS011;3433;48.730;9.108;2022-10-29T14:03:58;8.23;;;3.90;;
6791;SDS011;3433;48.730;9.108;2022-10-29T14:06:32;8.93;;;4.87;;
6791;SDS011;3433;48.730;9.108;2022-10-29T14:09:06;22.23;;;5.83;;
6791;SDS011;3433;48.730;9.108;2022-10-29T14:11:40;8.27;;;4.07;;
6791;SDS011;3433;48.730;9.108;2022-10-29T14:14:24;7.07;;;4.33;;
6791;SDS011;3433;48.730;9.108;2022-10-29T14:17:10;10.23;;;3.93;;
6791;SDS011;3433;48.730;9.108;2022-10-29T14:19:41;10.93;;;3.90;;
6791;SDS011;3433;48.730;9.108;2022-10-29T14:25:01;10.87;;;4.10;;
6791;SDS011;3433;48.730;9.108;2022-10-29T14:27:46;11.17;;;4.23;;
6791;SDS011;3433;48.730;9.108;2022-10-29T14:30:13;8.03;;;4.57;;
6791;SDS011;3433;48.730;9.108;2022-10-29T14:32:44;12.47;;;5.93;;
6791;SDS011;3433;48.730;9.108;2022-10-29T14:35:14;10.00;;;4.80;;
6791;SDS011;3433;48.730;9.108;2022-10-29T14:37:43;17.20;;;5.37;;
6791;SDS011;3433;48.730;9.108;2022-10-29T14:40:14;17.33;;;5.60;;
6791;SDS011;3433;48.730;9.108;2022-10-29T14:42:44;12.10;;;5.07;;
6791;SDS011;3433;48.730;9.108;2022-10-29T14:45:18;8.23;;;5.37;;
6791;SDS011;3433;48.730;9.108;2022-10-29T14:47:48;12.13;;;4.57;;
6791;SDS011;3433;48.730;9.108;2022-10-29T14:50:17;8.77;;;4.27;;
6791;SDS011;3433;48.730;9.108;2022-10-29T14:52:49;12.60;;;4.10;;
6791;SDS011;3433;48.730;9.108;2022-10-29T14:55:20;6.63;;;3.77;;
6791;SDS011;3433;48.730;9.108;2022-10-29T14:57:59;7.67;;;4.90;;
6791;SDS011;3433;48.730;9.108;2022-10-29T15:00:30;9.03;;;4.13;;
6791;SDS011;3433;48.730;9.108;2022-10-29T15:03:03;11.80;;;4.53;;
6791;SDS011;3433;48.730;9.108;2022-10-29T15:05:33;12.93;;;3.93;;
6791;SDS011;3433;48.730;9.108;2022-10-29T15:08:11;12.07;;;4.57;;
6791;SDS011;3433;48.730;9.108;2022-10-29T15:10:44;9.50;;;4.70;;
6791;SDS011;3433;48.730;9.108;2022-10-29T15:13:22;10.23;;;4.53;;
6791;SDS011;3433;48.730;9.108;2022-10-29T15:15:56;8.20;;;4.67;;
6791;SDS011;3433;48.730;9.108;2022-10-29T15:18:26;10.43;;;4.73;;
6791;SDS011;3433;48.730;9.108;2022-10-29T15:20:54;6.97;;;4.10;;
6791;SDS011;3433;48.730;9.108;2022-10-29T15:23:24;8.63;;;4.13;;
6791;SDS011;3433;48.730;9.108;2022-10-29T15:25:55;12.33;;;4.20;;
6791;SDS011;3433;48.730;9.108;2022-10-29T15:28:25;10.37;;;3.87;;
6791;SDS011;3433;48.730;9.108;2022-10-29T15:30:54;8.00;;;4.07;;
6791;SDS011;3433;48.730;9.108;2022-10-29T15:33:24;10.30;;;4.50;;
6791;SDS011;3433;48.730;9.108;2022-10-29T15:35:52;11.70;;;4.67;;
6791;SDS011;3433;48.730;9.108;2022-10-29T15:38:48;9.43;;;4.30;;
6791;SDS011;3433;48.730;9.108;2022-10-29T15:41:35;12.47;;;4.17;;
6791;SDS011;3433;48.730;9.108;2022-10-29T15:44:09;13.10;;;4.53;;
6791;SDS011;3433;48.730;9.108;2022-10-29T15:46:53;8.50;;;5.00;;
6791;SDS011;3433;48.730;9.108;2022-10-29T15:49:23;12.20;;;4.43;;
6791;SDS011;3433;48.730;9.108;2022-10-29T15:51:50;9.13;;;4.63;;
6791;SDS011;3433;48.730;9.108;2022-10-29T15:54:19;14.10;;;4.97;;
6791;SDS011;3433;48.730;9.108;2022-10-29T15:56:46;12.00;;;5.07;;
6791;SDS011;3433;48.730;9.108;2022-10-29T15:59:14;14.00;;;5.27;;
6791;SDS011;3433;48.730;9.108;2022-10-29T16:01:47;9.97;;;4.80;;
6791;SDS011;3433;48.730;9.108;2022-10-29T16:04:14;7.30;;;4.93;;
6791;SDS011;3433;48.730;9.108;2022-10-29T16:06:40;10.63;;;4.83;;
6791;SDS011;3433;48.730;9.108;2022-10-29T16:09:08;15.83;;;4.90;;
6791;SDS011;3433;48.730;9.108;2022-10-29T16:11:44;8.40;;;5.30;;
6791;SDS011;3433;48.730;9.108;2022-10-29T16:14:12;9.73;;;5.10;;
6791;SDS011;3433;48.730;9.108;2022-10-29T16:16:39;13.43;;;6.10;;